Time;durP1;ratioP1;P1;durP2;ratioP2;P2;SDS_P1;SDS_P2;PMS_P1;PMS_P2;Temp;Humidity;BMP_temperature;BMP_pressure;BME280_temperature;BME280_humidity;BME280_pressure;Samples;Min_cycle;Max_cycle;Signal;HPM_P1;HPM_P2
2023/06/20 00:06:34;;;;;;;0.30;0.30;;;;;;;;;;5200574;22;19925;-75
2023/06/20 00:09:01;;;;;;;0.25;0.20;;;;;;;;;;5041580;28;20062;-76
2023/06/20 00:11:27;;;;;;;0.60;0.47;;;;;;;;;;5036728;28;20136;-76
2023/06/20 00:13:54;;;;;;;0.40;0.40;;;;;;;;;;5035747;28;20827;-75
2023/06/20 00:16:20;;;;;;;0.38;0.30;;;;;;;;;;5041560;28;20057;-76
2023/06/20 00:18:53;;;;;;;0.30;0.30;;;;;;;;;;5029139;28;20056;-76
2023/06/20 00:21:25;;;;;;;0.30;0.22;;;;;;;;;;5023498;28;20550;-76
2023/06/20 00:23:55;;;;;;;0.28;0.28;;;;;;;;;;5043057;28;20552;-76
2023/06/20 00:26:21;;;;;;;1.90;0.70;;;;;;;;;;5043141;28;20057;-76
2023/06/20 00:28:51;;;;;;;0.10;0.10;;;;;;;;;;5040375;28;20049;-77
2023/06/20 00:31:18;;;;;;;0.32;0.30;;;;;;;;;;5026952;28;20139;-77
2023/06/20 00:33:44;;;;;;;0.57;0.50;;;;;;;;;;5044851;28;20053;-76
2023/06/20 00:36:11;;;;;;;0.10;0.10;;;;;;;;;;5023255;28;20088;-76
2023/06/20 00:38:37;;;;;;;0.15;0.15;;;;;;;;;;5038793;28;20061;-77
2023/06/20 00:41:04;;;;;;;0.52;0.43;;;;;;;;;;5035118;28;20058;-76
2023/06/20 00:43:31;;;;;;;0.25;0.20;;;;;;;;;;5043541;28;20670;-76
2023/06/20 00:45:57;;;;;;;0.20;0.20;;;;;;;;;;5042326;28;20057;-77
2023/06/20 00:48:24;;;;;;;0.30;0.30;;;;;;;;;;5043889;28;20112;-76
2023/06/20 00:50:51;;;;;;;0.32;0.30;;;;;;;;;;5029686;28;20514;-76
2023/06/20 00:53:17;;;;;;;0.20;0.20;;;;;;;;;;5030731;28;20057;-76
2023/06/20 00:55:44;;;;;;;0.38;0.17;;;;;;;;;;5034206;28;20060;-76
2023/06/20 00:58:11;;;;;;;0.10;0.10;;;;;;;;;;5022812;28;20053;-76
2023/06/20 01:00:38;;;;;;;0.35;0.35;;;;;;;;;;5038829;28;20050;-76
2023/06/20 01:03:07;;;;;;;0.25;0.25;;;;;;;;;;5014814;28;20054;-76
2023/06/20 01:05:34;;;;;;;0.30;0.30;;;;;;;;;;5031891;28;20058;-76
2023/06/20 01:08:19;;;;;;;0.10;0.10;;;;;;;;;;5037376;28;20183;-76
2023/06/20 01:10:53;;;;;;;0.28;0.28;;;;;;;;;;5006044;28;20061;-76
2023/06/20 01:13:43;;;;;;;0.10;0.10;;;;;;;;;;5023022;28;20054;-76
2023/06/20 01:16:29;;;;;;;0.25;0.22;;;;;;;;;;5023505;28;20061;-77
2023/06/20 01:19:08;;;;;;;0.90;0.85;;;;;;;;;;5032476;28;20060;-77
2023/06/20 01:21:40;;;;;;;0.20;0.20;;;;;;;;;;5041039;28;20124;-77
2023/06/20 01:24:09;;;;;;;0.38;0.35;;;;;;;;;;5028904;28;20066;-76
2023/06/20 01:26:41;;;;;;;0.20;0.20;;;;;;;;;;5024983;28;20520;-77
2023/06/20 01:29:16;;;;;;;0.20;0.20;;;;;;;;;;5030346;28;20151;-77
2023/06/20 01:31:45;;;;;;;0.20;0.20;;;;;;;;;;5026899;28;20056;-77
2023/06/20 01:34:14;;;;;;;0.20;0.20;;;;;;;;;;5026975;28;20105;-76
2023/06/20 01:36:42;;;;;;;0.22;0.20;;;;;;;;;;5025646;28;20050;-76
2023/06/20 01:39:11;;;;;;;0.20;0.20;;;;;;;;;;5026499;28;20045;-77
2023/06/20 01:41:39;;;;;;;0.90;0.57;;;;;;;;;;5043115;28;20136;-76
2023/06/20 01:44:07;;;;;;;0.50;0.50;;;;;;;;;;5042602;28;20116;-77
2023/06/20 01:46:34;;;;;;;0.45;0.30;;;;;;;;;;5017138;28;20422;-76
2023/06/20 01:49:01;;;;;;;0.10;0.10;;;;;;;;;;5038959;28;20054;-76
2023/06/20 01:51:29;;;;;;;0.20;0.20;;;;;;;;;;5013919;28;20103;-76
2023/06/20 01:53:56;;;;;;;0.20;0.17;;;;;;;;;;5032688;28;20065;-76
2023/06/20 01:56:26;;;;;;;0.10;0.10;;;;;;;;;;5029802;28;20046;-77
2023/06/20 01:58:53;;;;;;;0.30;0.30;;;;;;;;;;5025983;28;20050;-76
2023/06/20 02:01:21;;;;;;;0.10;0.10;;;;;;;;;;5025833;28;20569;-77
2023/06/20 02:03:48;;;;;;;0.30;0.30;;;;;;;;;;5032125;28;20584;-76
2023/06/20 02:06:15;;;;;;;0.20;0.20;;;;;;;;;;5032557;28;20058;-77
2023/06/20 02:08:42;;;;;;;0.52;0.40;;;;;;;;;;5045569;28;20587;-76
2023/06/20 02:11:09;;;;;;;0.20;0.20;;;;;;;;;;5044843;28;20103;-76
2023/06/20 02:13:36;;;;;;;0.20;0.20;;;;;;;;;;5019195;28;20429;-77
2023/06/20 02:16:05;;;;;;;0.10;0.10;;;;;;;;;;5030325;28;20140;-76
2023/06/20 02:18:32;;;;;;;0.10;0.10;;;;;;;;;;5007233;28;20054;-77
2023/06/20 02:21:03;;;;;;;0.30;0.30;;;;;;;;;;5026469;28;20054;-77
2023/06/20 02:23:31;;;;;;;0.22;0.22;;;;;;;;;;5026193;28;20050;-77
2023/06/20 02:26:02;;;;;;;0.32;0.30;;;;;;;;;;5040006;28;20057;-76
2023/06/20 02:28:29;;;;;;;0.77;0.40;;;;;;;;;;5028342;28;20465;-77
2023/06/20 02:30:56;;;;;;;0.17;0.17;;;;;;;;;;5044594;28;20049;-77
2023/06/20 02:33:24;;;;;;;0.20;0.20;;;;;;;;;;5017737;28;20145;-77
2023/06/20 02:35:51;;;;;;;0.20;0.20;;;;;;;;;;5032525;28;20054;-77
2023/06/20 02:38:17;;;;;;;0.50;0.50;;;;;;;;;;5025369;28;20085;-77
2023/06/20 02:40:44;;;;;;;0.47;0.28;;;;;;;;;;5026027;28;20736;-76
2023/06/20 02:43:10;;;;;;;0.20;0.20;;;;;;;;;;5040866;28;20089;-76
2023/06/20 02:45:37;;;;;;;1.38;0.60;;;;;;;;;;5043656;28;20089;-76
2023/06/20 02:48:22;;;;;;;0.17;0.17;;;;;;;;;;5026696;28;20065;-76
2023/06/20 02:51:01;;;;;;;0.13;0.13;;;;;;;;;;5044344;28;20080;-76
2023/06/20 02:53:37;;;;;;;0.20;0.20;;;;;;;;;;5038920;28;20057;-76
2023/06/20 02:56:08;;;;;;;0.15;0.15;;;;;;;;;;5035111;28;20162;-77
2023/06/20 02:58:37;;;;;;;0.52;0.52;;;;;;;;;;5006793;28;20054;-76
2023/06/20 03:01:04;;;;;;;0.20;0.20;;;;;;;;;;5009487;28;20557;-77
2023/06/20 03:03:30;;;;;;;0.30;0.20;;;;;;;;;;5041131;28;20588;-77
2023/06/20 03:05:58;;;;;;;0.85;0.40;;;;;;;;;;5032848;28;20462;-77
2023/06/20 03:08:26;;;;;;;0.10;0.10;;;;;;;;;;5026507;28;20054;-76
2023/06/20 03:10:53;;;;;;;0.20;0.20;;;;;;;;;;5024679;28;20050;-77
2023/06/20 03:13:20;;;;;;;0.60;0.30;;;;;;;;;;5036989;28;20063;-76
2023/06/20 03:15:49;;;;;;;0.17;0.17;;;;;;;;;;5042981;28;20057;-77
2023/06/20 03:18:17;;;;;;;0.20;0.20;;;;;;;;;;5025262;28;20232;-76
2023/06/20 03:20:47;;;;;;;0.20;0.20;;;;;;;;;;5028643;28;20080;-77
2023/06/20 03:23:15;;;;;;;0.20;0.20;;;;;;;;;;5018050;28;20053;-76
2023/06/20 03:25:41;;;;;;;0.10;0.10;;;;;;;;;;5032663;28;20532;-77
2023/06/20 03:28:08;;;;;;;0.20;0.20;;;;;;;;;;5024497;28;20444;-77
2023/06/20 03:30:34;;;;;;;0.55;0.38;;;;;;;;;;5038610;28;20056;-77
2023/06/20 03:33:01;;;;;;;0.40;0.40;;;;;;;;;;5041186;28;20057;-77
2023/06/20 03:35:27;;;;;;;0.20;0.20;;;;;;;;;;5042872;28;20055;-77
2023/06/20 03:37:54;;;;;;;0.10;0.10;;;;;;;;;;5044002;28;20183;-77
2023/06/20 03:40:20;;;;;;;0.85;0.40;;;;;;;;;;5040340;28;20057;-77
2023/06/20 03:42:49;;;;;;;0.65;0.20;;;;;;;;;;5039515;28;21819;-77
2023/06/20 03:45:15;;;;;;;0.30;0.30;;;;;;;;;;5024301;28;20091;-76
2023/06/20 03:47:42;;;;;;;0.30;0.30;;;;;;;;;;5025356;28;20659;-76
2023/06/20 03:50:08;;;;;;;0.10;0.10;;;;;;;;;;5024802;28;20133;-77
2023/06/20 03:52:35;;;;;;;0.30;0.30;;;;;;;;;;5008951;28;20053;-77
2023/06/20 03:55:01;;;;;;;0.20;0.20;;;;;;;;;;5030692;28;20938;-76
2023/06/20 03:57:28;;;;;;;0.20;0.20;;;;;;;;;;5026678;28;20121;-76
2023/06/20 03:59:54;;;;;;;0.20;0.20;;;;;;;;;;5044302;28;20058;-77
2023/06/20 04:02:21;;;;;;;0.20;0.20;;;;;;;;;;5035206;28;20053;-77
2023/06/20 04:04:50;;;;;;;0.20;0.20;;;;;;;;;;5024251;28;20562;-77
2023/06/20 04:07:19;;;;;;;0.43;0.28;;;;;;;;;;5033038;28;20558;-76
2023/06/20 04:09:46;;;;;;;0.20;0.20;;;;;;;;;;5023950;28;20057;-76
2023/06/20 04:12:12;;;;;;;0.30;0.30;;;;;;;;;;5024411;28;20104;-77
2023/06/20 04:14:39;;;;;;;0.10;0.10;;;;;;;;;;5040903;28;20049;-77
2023/06/20 04:17:06;;;;;;;0.85;0.47;;;;;;;;;;5046639;28;20050;-76
2023/06/20 04:19:33;;;;;;;0.20;0.20;;;;;;;;;;5043500;28;20584;-77
2023/06/20 04:21:59;;;;;;;0.20;0.20;;;;;;;;;;5024142;28;20078;-76
2023/06/20 04:24:26;;;;;;;0.30;0.30;;;;;;;;;;5027035;28;20449;-77
2023/06/20 04:26:55;;;;;;;0.43;0.40;;;;;;;;;;5036449;28;20136;-77
2023/06/20 04:29:22;;;;;;;0.20;0.20;;;;;;;;;;5041876;28;20140;-76
2023/06/20 04:31:52;;;;;;;0.65;0.40;;;;;;;;;;5043799;28;20073;-77
2023/06/20 04:34:23;;;;;;;0.10;0.10;;;;;;;;;;5019977;28;20053;-77
2023/06/20 04:36:50;;;;;;;0.10;0.10;;;;;;;;;;5009033;28;20124;-77
2023/06/20 04:39:17;;;;;;;0.10;0.10;;;;;;;;;;5023371;28;20058;-77
2023/06/20 04:41:43;;;;;;;0.75;0.75;;;;;;;;;;5023601;28;20590;-77
2023/06/20 04:44:10;;;;;;;0.35;0.32;;;;;;;;;;5023679;28;20054;-77
2023/06/20 04:46:36;;;;;;;0.38;0.30;;;;;;;;;;5038865;28;20061;-77
2023/06/20 04:49:03;;;;;;;0.63;0.50;;;;;;;;;;5038545;28;20060;-77
2023/06/20 04:51:30;;;;;;;0.22;0.22;;;;;;;;;;5043298;28;20597;-77
2023/06/20 04:53:56;;;;;;;0.10;0.10;;;;;;;;;;5036301;28;20060;-77
2023/06/20 04:56:23;;;;;;;0.35;0.30;;;;;;;;;;5025266;28;20529;-77
2023/06/20 04:58:49;;;;;;;0.10;0.10;;;;;;;;;;5042887;28;20576;-77
2023/06/20 05:01:16;;;;;;;0.30;0.30;;;;;;;;;;5041828;28;20125;-77
2023/06/20 05:03:43;;;;;;;0.20;0.20;;;;;;;;;;5041156;28;20084;-77
2023/06/20 05:06:17;;;;;;;0.22;0.20;;;;;;;;;;5013522;28;20108;-77
2023/06/20 05:08:44;;;;;;;1.20;1.10;;;;;;;;;;5026998;28;20062;-76
2023/06/20 05:11:11;;;;;;;0.63;0.40;;;;;;;;;;5035502;28;20054;-76
2023/06/20 05:13:38;;;;;;;0.20;0.20;;;;;;;;;;5026506;28;20469;-76
2023/06/20 05:16:05;;;;;;;0.63;0.40;;;;;;;;;;5033043;28;20420;-76
2023/06/20 05:18:32;;;;;;;0.30;0.30;;;;;;;;;;5045845;28;20088;-76
2023/06/20 05:20:58;;;;;;;0.73;0.68;;;;;;;;;;5043826;28;20583;-77
2023/06/20 05:23:25;;;;;;;1.75;0.75;;;;;;;;;;5035651;28;20623;-76
2023/06/20 05:25:52;;;;;;;0.20;0.20;;;;;;;;;;5044806;28;20080;-76
2023/06/20 05:28:18;;;;;;;0.10;0.10;;;;;;;;;;5039092;28;20054;-77
2023/06/20 05:30:45;;;;;;;0.22;0.22;;;;;;;;;;5028479;28;20146;-77
2023/06/20 05:33:11;;;;;;;0.20;0.20;;;;;;;;;;5038798;28;20057;-77
2023/06/20 05:35:38;;;;;;;0.35;0.30;;;;;;;;;;5043250;28;20061;-75
2023/06/20 05:38:05;;;;;;;0.25;0.25;;;;;;;;;;5022641;28;20131;-76
2023/06/20 05:40:31;;;;;;;0.60;0.45;;;;;;;;;;5031276;28;20065;-76
2023/06/20 05:42:58;;;;;;;0.22;0.22;;;;;;;;;;5029523;28;20312;-77
2023/06/20 05:45:24;;;;;;;0.45;0.40;;;;;;;;;;5041522;28;20072;-76
2023/06/20 05:50:26;;;;;;;0.10;0.10;;;;;;;;;;5789304;22;20060;-74
2023/06/20 05:52:53;;;;;;;0.38;0.38;;;;;;;;;;5067013;28;20044;-75
2023/06/20 05:55:19;;;;;;;0.20;0.20;;;;;;;;;;5054812;28;20053;-76
2023/06/20 05:57:49;;;;;;;0.40;0.22;;;;;;;;;;5047367;28;20504;-78
2023/06/20 06:00:16;;;;;;;0.60;0.40;;;;;;;;;;5062060;28;21425;-76
2023/06/20 06:02:45;;;;;;;0.30;0.30;;;;;;;;;;5054017;28;20485;-76
2023/06/20 06:05:12;;;;;;;0.73;0.52;;;;;;;;;;5048730;28;20054;-77
2023/06/20 06:07:38;;;;;;;3.10;1.70;;;;;;;;;;5064007;28;20053;-76
2023/06/20 06:10:07;;;;;;;0.60;0.43;;;;;;;;;;5032473;28;20050;-76
2023/06/20 06:12:36;;;;;;;0.77;0.38;;;;;;;;;;5062852;28;20106;-74
2023/06/20 06:15:04;;;;;;;0.50;0.40;;;;;;;;;;5059756;28;20057;-74
2023/06/20 06:17:31;;;;;;;0.52;0.43;;;;;;;;;;5063609;28;20056;-74
2023/06/20 06:19:57;;;;;;;0.80;0.47;;;;;;;;;;5048990;28;20129;-74
2023/06/20 06:22:24;;;;;;;0.60;0.43;;;;;;;;;;5046938;28;20064;-73
2023/06/20 06:24:51;;;;;;;1.00;0.73;;;;;;;;;;5050681;28;20107;-73
2023/06/20 06:27:17;;;;;;;2.40;0.90;;;;;;;;;;5054440;28;20061;-74
2023/06/20 06:29:44;;;;;;;5.60;1.60;;;;;;;;;;5050516;28;20509;-73
2023/06/20 06:32:11;;;;;;;1.27;0.85;;;;;;;;;;5064148;28;20056;-73
2023/06/20 06:34:41;;;;;;;0.95;0.77;;;;;;;;;;5057156;28;20557;-73
2023/06/20 06:37:07;;;;;;;0.52;0.40;;;;;;;;;;5051774;28;20591;-73
2023/06/20 06:39:34;;;;;;;0.80;0.50;;;;;;;;;;5065223;28;20110;-74
2023/06/20 06:42:00;;;;;;;0.52;0.45;;;;;;;;;;5061321;28;20061;-76
2023/06/20 06:44:27;;;;;;;0.98;0.60;;;;;;;;;;5052931;28;20489;-74
2023/06/20 06:46:55;;;;;;;0.65;0.47;;;;;;;;;;5045781;28;20053;-73
2023/06/20 06:49:22;;;;;;;0.30;0.25;;;;;;;;;;5046905;28;20391;-74
2023/06/20 06:51:49;;;;;;;0.57;0.40;;;;;;;;;;5046094;28;20144;-74
2023/06/20 06:54:16;;;;;;;1.65;0.85;;;;;;;;;;5057273;28;20045;-73
2023/06/20 06:56:43;;;;;;;0.73;0.50;;;;;;;;;;5054117;28;20084;-73
2023/06/20 06:59:09;;;;;;;0.75;0.43;;;;;;;;;;5061997;28;20058;-73
2023/06/20 07:01:35;;;;;;;0.93;0.60;;;;;;;;;;5050782;28;20058;-73
2023/06/20 07:04:03;;;;;;;0.65;0.40;;;;;;;;;;5057642;28;20046;-73
2023/06/20 07:06:30;;;;;;;0.70;0.43;;;;;;;;;;5059018;28;20108;-73
2023/06/20 07:08:56;;;;;;;0.85;0.65;;;;;;;;;;5058756;28;20080;-73
2023/06/20 07:19:33;;;;;;;0.80;0.63;;;;;;;;;;5748097;22;20043;-72
2023/06/20 07:21:59;;;;;;;0.73;0.55;;;;;;;;;;5012179;28;20548;-75
2023/06/20 07:27:01;;;;;;;0.75;0.50;;;;;;;;;;5178358;22;20049;-73
2023/06/20 07:29:27;;;;;;;0.90;0.45;;;;;;;;;;5037190;28;20089;-72
2023/06/20 07:31:54;;;;;;;1.15;0.60;;;;;;;;;;5040079;28;20057;-73
2023/06/20 07:34:20;;;;;;;0.70;0.40;;;;;;;;;;5042449;28;20057;-73
2023/06/20 07:36:47;;;;;;;0.65;0.50;;;;;;;;;;5034275;28;20141;-73
2023/06/20 07:39:13;;;;;;;0.98;0.52;;;;;;;;;;5037828;28;20060;-72
2023/06/20 07:41:39;;;;;;;0.63;0.45;;;;;;;;;;5037272;28;20053;-75
2023/06/20 07:44:08;;;;;;;0.73;0.52;;;;;;;;;;5039707;28;20127;-73
2023/06/20 07:46:34;;;;;;;1.23;0.70;;;;;;;;;;5044951;28;20057;-74
2023/06/20 07:49:00;;;;;;;0.75;0.75;;;;;;;;;;5043434;28;20144;-72
2023/06/20 07:51:31;;;;;;;0.77;0.35;;;;;;;;;;5045791;28;20417;-73
2023/06/20 07:53:57;;;;;;;1.40;0.95;;;;;;;;;;5041756;28;20057;-72
2023/06/20 07:56:24;;;;;;;0.75;0.40;;;;;;;;;;5038417;28;20054;-73
2023/06/20 07:58:51;;;;;;;0.38;0.30;;;;;;;;;;5041584;28;20053;-73
2023/06/20 08:01:17;;;;;;;1.35;0.85;;;;;;;;;;5039707;28;20091;-73
2023/06/20 08:03:44;;;;;;;0.40;0.40;;;;;;;;;;5043802;28;20710;-73
2023/06/20 08:06:11;;;;;;;1.08;0.52;;;;;;;;;;5042716;28;20085;-73
2023/06/20 08:08:38;;;;;;;1.85;0.75;;;;;;;;;;5036804;28;20700;-72
2023/06/20 08:11:05;;;;;;;0.32;0.30;;;;;;;;;;5040260;28;20061;-73
2023/06/20 08:13:31;;;;;;;0.40;0.40;;;;;;;;;;5037188;28;20061;-72
2023/06/20 08:15:57;;;;;;;0.77;0.50;;;;;;;;;;5047173;28;20135;-73
2023/06/20 08:18:24;;;;;;;0.55;0.40;;;;;;;;;;5035996;28;20168;-75
2023/06/20 08:20:50;;;;;;;0.50;0.40;;;;;;;;;;5040327;28;20053;-73
2023/06/20 08:23:26;;;;;;;0.40;0.40;;;;;;;;;;5019044;28;20054;-73
2023/06/20 08:25:54;;;;;;;0.30;0.30;;;;;;;;;;5035409;28;20050;-73
2023/06/20 08:28:21;;;;;;;0.65;0.65;;;;;;;;;;5035001;28;20054;-73
2023/06/20 08:30:47;;;;;;;0.98;0.73;;;;;;;;;;5040011;28;20129;-73
2023/06/20 08:33:14;;;;;;;0.95;0.68;;;;;;;;;;5044402;28;20053;-73
2023/06/20 08:35:40;;;;;;;1.20;0.77;;;;;;;;;;5041725;28;20587;-72
2023/06/20 08:38:07;;;;;;;1.05;0.45;;;;;;;;;;5040641;28;20053;-74
2023/06/20 08:40:34;;;;;;;0.30;0.30;;;;;;;;;;5056775;28;20135;-72
2023/06/20 08:43:00;;;;;;;0.80;0.50;;;;;;;;;;5037877;28;20088;-73
2023/06/20 08:45:29;;;;;;;0.80;0.80;;;;;;;;;;5036295;28;20057;-72
2023/06/20 08:47:58;;;;;;;0.73;0.55;;;;;;;;;;5041299;28;20579;-73
2023/06/20 08:50:25;;;;;;;;;;;;;;;;;;5043454;28;20641;-73
2023/06/20 08:52:55;;;;;;;1.10;0.60;;;;;;;;;;5039509;28;46091;-72
2023/06/20 08:55:23;;;;;;;0.77;0.68;;;;;;;;;;5038627;28;20053;-72
2023/06/20 08:57:51;;;;;;;0.70;0.70;;;;;;;;;;5037753;28;20056;-73
2023/06/20 09:00:20;;;;;;;0.68;0.45;;;;;;;;;;5036556;28;20058;-73
2023/06/20 09:02:47;;;;;;;0.40;0.40;;;;;;;;;;5031025;28;20125;-72
2023/06/20 09:05:14;;;;;;;3.45;1.17;;;;;;;;;;5034614;28;20453;-74
2023/06/20 09:07:41;;;;;;;0.30;0.30;;;;;;;;;;5037517;28;20135;-74
2023/06/20 09:10:09;;;;;;;0.63;0.50;;;;;;;;;;5031987;28;20049;-72
2023/06/20 09:12:45;;;;;;;0.57;0.50;;;;;;;;;;5032951;28;20057;-72
2023/06/20 09:15:13;;;;;;;0.38;0.38;;;;;;;;;;5039196;28;20154;-73
2023/06/20 09:17:40;;;;;;;0.98;0.73;;;;;;;;;;5037593;28;20057;-72
2023/06/20 09:20:07;;;;;;;0.55;0.50;;;;;;;;;;5035511;28;20054;-77
2023/06/20 09:22:36;;;;;;;0.40;0.40;;;;;;;;;;5036177;28;20054;-72
2023/06/20 09:25:03;;;;;;;0.30;0.30;;;;;;;;;;5040652;28;20053;-73
2023/06/20 09:27:34;;;;;;;0.77;0.57;;;;;;;;;;5035917;28;20559;-72
2023/06/20 09:30:03;;;;;;;0.30;0.30;;;;;;;;;;5036773;28;20542;-72
2023/06/20 09:32:37;;;;;;;0.75;0.50;;;;;;;;;;5035308;28;20579;-72
2023/06/20 09:35:04;;;;;;;0.75;0.50;;;;;;;;;;5038867;28;20096;-73
2023/06/20 09:37:43;;;;;;;0.55;0.55;;;;;;;;;;5026466;28;20045;-72
2023/06/20 09:40:10;;;;;;;0.53;0.43;;;;;;;;;;5033992;28;20050;-72
2023/06/20 09:42:41;;;;;;;0.45;0.40;;;;;;;;;;5035582;28;20269;-72
2023/06/20 09:45:09;;;;;;;1.08;0.60;;;;;;;;;;5012825;28;20053;-73
2023/06/20 09:47:36;;;;;;;0.90;0.40;;;;;;;;;;5032726;28;20567;-72
2023/06/20 09:50:13;;;;;;;0.40;0.40;;;;;;;;;;5040250;28;20156;-72
2023/06/20 09:52:43;;;;;;;0.43;0.40;;;;;;;;;;5043550;28;20155;-72
2023/06/20 09:55:11;;;;;;;1.00;0.60;;;;;;;;;;5035491;28;20057;-72
2023/06/20 09:57:41;;;;;;;0.82;0.55;;;;;;;;;;5041225;28;20124;-72
2023/06/20 10:00:14;;;;;;;0.88;0.82;;;;;;;;;;5038163;28;20089;-73
2023/06/20 10:02:45;;;;;;;0.38;0.38;;;;;;;;;;5043725;28;20891;-72
2023/06/20 10:05:13;;;;;;;1.92;1.15;;;;;;;;;;5027059;28;20204;-73
2023/06/20 10:07:41;;;;;;;1.48;0.85;;;;;;;;;;5041094;28;20054;-71
2023/06/20 10:10:08;;;;;;;0.40;0.40;;;;;;;;;;5039939;28;20572;-72
2023/06/20 10:12:35;;;;;;;0.77;0.50;;;;;;;;;;5035649;28;20523;-73
2023/06/20 10:15:03;;;;;;;1.00;0.90;;;;;;;;;;5040578;28;20616;-72
2023/06/20 10:17:31;;;;;;;1.23;1.05;;;;;;;;;;5033009;28;20077;-73
2023/06/20 10:19:58;;;;;;;0.63;0.50;;;;;;;;;;5040783;28;20053;-72
2023/06/20 10:22:32;;;;;;;1.27;1.15;;;;;;;;;;5044629;28;20162;-72
2023/06/20 10:25:11;;;;;;;0.52;0.45;;;;;;;;;;5043656;28;20057;-72
2023/06/20 10:27:38;;;;;;;1.02;0.60;;;;;;;;;;5053015;28;20172;-73
2023/06/20 10:30:06;;;;;;;0.68;0.55;;;;;;;;;;5065126;28;20513;-72
2023/06/20 10:32:32;;;;;;;0.73;0.60;;;;;;;;;;5065317;28;20102;-72
2023/06/20 10:35:09;;;;;;;0.50;0.50;;;;;;;;;;5042748;28;20104;-72
2023/06/20 10:40:27;;;;;;;0.50;0.50;;;;;;;;;;5301500;22;19936;-73
2023/06/20 10:42:53;;;;;;;1.33;1.08;;;;;;;;;;5042194;28;20583;-73
2023/06/20 10:45:29;;;;;;;0.73;0.50;;;;;;;;;;5026675;28;20053;-73
2023/06/20 10:47:56;;;;;;;0.68;0.52;;;;;;;;;;5046109;28;20140;-73
2023/06/20 10:50:23;;;;;;;0.40;0.40;;;;;;;;;;5041782;28;20152;-75
2023/06/20 10:52:50;;;;;;;0.75;0.43;;;;;;;;;;5034339;28;20587;-73
2023/06/20 10:55:27;;;;;;;0.45;0.45;;;;;;;;;;5039228;28;20057;-74
2023/06/20 10:57:54;;;;;;;0.40;0.40;;;;;;;;;;5044758;28;20049;-74
2023/06/20 11:00:21;;;;;;;0.50;0.50;;;;;;;;;;5041135;28;20061;-73
2023/06/20 11:02:49;;;;;;;1.23;0.57;;;;;;;;;;5044676;28;20140;-73
2023/06/20 11:05:16;;;;;;;0.40;0.40;;;;;;;;;;5046171;28;20049;-75
2023/06/20 11:07:53;;;;;;;0.40;0.40;;;;;;;;;;5039893;28;20081;-74
2023/06/20 11:10:20;;;;;;;0.40;0.40;;;;;;;;;;5045511;28;20895;-74
2023/06/20 11:12:47;;;;;;;0.70;0.70;;;;;;;;;;5038672;28;20157;-73
2023/06/20 11:15:20;;;;;;;0.55;0.40;;;;;;;;;;5009267;28;20530;-74
2023/06/20 11:17:47;;;;;;;0.60;0.60;;;;;;;;;;5043019;28;20053;-74
2023/06/20 11:20:16;;;;;;;1.17;0.60;;;;;;;;;;5044675;28;20519;-74
2023/06/20 11:22:42;;;;;;;0.47;0.47;;;;;;;;;;5041550;28;20050;-74
2023/06/20 11:25:09;;;;;;;0.40;0.40;;;;;;;;;;5044755;28;20441;-74
2023/06/20 11:27:36;;;;;;;0.40;0.40;;;;;;;;;;5044802;28;20049;-74
2023/06/20 11:30:03;;;;;;;0.85;0.52;;;;;;;;;;5045871;28;20057;-74
2023/06/20 11:32:29;;;;;;;0.40;0.40;;;;;;;;;;5041742;28;20057;-73
2023/06/20 11:34:59;;;;;;;0.55;0.50;;;;;;;;;;5044884;28;20653;-74
2023/06/20 11:37:26;;;;;;;0.32;0.32;;;;;;;;;;5042605;28;20410;-74
2023/06/20 11:39:52;;;;;;;0.40;0.40;;;;;;;;;;5044459;28;20060;-73
2023/06/20 11:42:19;;;;;;;0.40;0.40;;;;;;;;;;5036072;28;20081;-75
2023/06/20 11:44:46;;;;;;;0.43;0.40;;;;;;;;;;5043013;28;20053;-74
2023/06/20 11:47:12;;;;;;;0.45;0.45;;;;;;;;;;5042566;28;20049;-74
2023/06/20 11:49:40;;;;;;;1.17;0.70;;;;;;;;;;5047386;28;20140;-74
2023/06/20 11:52:07;;;;;;;1.52;0.63;;;;;;;;;;5051814;28;20067;-74
2023/06/20 11:54:47;;;;;;;0.43;0.40;;;;;;;;;;5045765;28;20057;-74
2023/06/20 11:57:23;;;;;;;0.40;0.40;;;;;;;;;;5043664;28;20053;-74
2023/06/20 11:59:56;;;;;;;3.63;0.80;;;;;;;;;;5032013;28;20054;-74
2023/06/20 12:02:28;;;;;;;1.63;0.80;;;;;;;;;;5045230;28;20172;-75
2023/06/20 12:04:58;;;;;;;0.57;0.40;;;;;;;;;;5029849;28;20058;-73
2023/06/20 12:07:25;;;;;;;0.68;0.52;;;;;;;;;;5042504;28;20053;-74
2023/06/20 12:09:51;;;;;;;0.40;0.40;;;;;;;;;;5042891;28;20529;-73
2023/06/20 12:12:18;;;;;;;1.20;0.73;;;;;;;;;;5044031;28;20052;-73
2023/06/20 12:14:51;;;;;;;0.40;0.40;;;;;;;;;;5041766;28;20111;-73
2023/06/20 12:17:18;;;;;;;0.38;0.38;;;;;;;;;;5036928;28;20521;-73
2023/06/20 12:19:48;;;;;;;0.98;0.70;;;;;;;;;;5017263;28;20060;-73
2023/06/20 12:22:15;;;;;;;0.73;0.60;;;;;;;;;;5032540;28;20535;-74
2023/06/20 12:24:41;;;;;;;0.40;0.40;;;;;;;;;;5037321;28;20108;-73
2023/06/20 12:27:08;;;;;;;1.42;0.82;;;;;;;;;;5032310;28;20571;-73
2023/06/20 12:29:35;;;;;;;0.90;0.65;;;;;;;;;;5042675;28;20057;-74
2023/06/20 12:32:02;;;;;;;0.90;0.65;;;;;;;;;;5046190;28;20494;-73
2023/06/20 12:34:29;;;;;;;0.80;0.60;;;;;;;;;;5042218;28;20107;-74
2023/06/20 12:36:55;;;;;;;1.17;0.65;;;;;;;;;;5044704;28;20050;-73
2023/06/20 12:39:22;;;;;;;0.88;0.80;;;;;;;;;;5331108;22;20024;-72
2023/06/20 12:41:48;;;;;;;0.40;0.40;;;;;;;;;;5016631;28;20564;-73
2023/06/20 12:44:15;;;;;;;0.47;0.47;;;;;;;;;;5020574;28;20430;-74
2023/06/20 12:51:58;;;;;;;0.55;0.47;;;;;;;;;;5359141;22;20049;-74
2023/06/20 12:54:24;;;;;;;0.55;0.50;;;;;;;;;;5028056;28;20077;-73
2023/06/20 12:56:51;;;;;;;0.73;0.55;;;;;;;;;;5009142;28;20380;-73
2023/06/20 12:59:17;;;;;;;1.17;0.63;;;;;;;;;;5020882;28;20065;-73
2023/06/20 13:01:44;;;;;;;0.50;0.40;;;;;;;;;;5023855;28;20062;-74
2023/06/20 13:04:10;;;;;;;0.60;0.50;;;;;;;;;;5017434;28;20104;-75
2023/06/20 13:06:37;;;;;;;0.73;0.50;;;;;;;;;;5019912;28;20058;-74
2023/06/20 13:09:05;;;;;;;0.47;0.40;;;;;;;;;;5019079;28;20065;-74
2023/06/20 13:11:32;;;;;;;0.40;0.40;;;;;;;;;;5024912;28;20081;-74
2023/06/20 13:13:58;;;;;;;0.73;0.50;;;;;;;;;;5023797;28;20085;-74
2023/06/20 13:16:24;;;;;;;1.55;0.50;;;;;;;;;;5024803;28;20068;-75
2023/06/20 13:18:54;;;;;;;0.57;0.43;;;;;;;;;;5018736;28;20146;-76
2023/06/20 13:21:20;;;;;;;0.50;0.47;;;;;;;;;;5024383;28;20112;-74
2023/06/20 13:23:47;;;;;;;0.60;0.50;;;;;;;;;;5019403;28;20101;-75
2023/06/20 13:26:33;;;;;;;0.77;0.60;;;;;;;;;;5008497;28;20089;-73
2023/06/20 13:29:00;;;;;;;1.02;0.70;;;;;;;;;;5025326;28;20132;-74
2023/06/20 13:31:27;;;;;;;0.63;0.40;;;;;;;;;;5028412;28;20177;-73
2023/06/20 13:33:53;;;;;;;0.55;0.50;;;;;;;;;;5024244;28;20148;-74
2023/06/20 13:36:19;;;;;;;0.50;0.50;;;;;;;;;;5010266;28;20056;-73
2023/06/20 13:38:48;;;;;;;0.77;0.60;;;;;;;;;;5026044;28;20129;-72
2023/06/20 13:41:15;;;;;;;0.40;0.40;;;;;;;;;;5027996;28;20061;-73
2023/06/20 13:43:41;;;;;;;0.75;0.50;;;;;;;;;;5025270;28;20052;-71
2023/06/20 13:46:08;;;;;;;0.40;0.40;;;;;;;;;;5029412;28;20061;-72
2023/06/20 13:48:35;;;;;;;0.30;0.30;;;;;;;;;;5025308;28;20053;-72
2023/06/20 13:51:01;;;;;;;0.30;0.30;;;;;;;;;;5026400;28;20046;-72
2023/06/20 13:56:09;;;;;;;0.40;0.40;;;;;;;;;;5599179;22;20149;-75
2023/06/20 13:58:37;;;;;;;0.40;0.40;;;;;;;;;;5045404;28;20053;-75
2023/06/20 14:06:27;;;;;;;1.02;0.95;;;;;;;;;;5517075;22;20091;-73
2023/06/20 14:08:54;;;;;;;0.30;0.30;;;;;;;;;;5039016;28;20212;-74
2023/06/20 14:11:20;;;;;;;0.57;0.50;;;;;;;;;;5037305;28;20532;-73
2023/06/20 14:13:47;;;;;;;1.80;0.50;;;;;;;;;;5031740;28;20081;-73
2023/06/20 14:16:13;;;;;;;0.90;0.47;;;;;;;;;;5045086;28;20590;-74
2023/06/20 14:21:25;;;;;;;0.30;0.30;;;;;;;;;;5866136;22;20733;-75
2023/06/20 14:23:51;;;;;;;0.30;0.30;;;;;;;;;;5052953;28;20559;-73
2023/06/20 14:28:50;;;;;;;0.63;0.52;;;;;;;;;;4996883;28;20151;-73
2023/06/20 14:31:16;;;;;;;0.80;0.60;;;;;;;;;;5016977;28;20800;-75
2023/06/20 14:33:43;;;;;;;3.08;1.20;;;;;;;;;;5035752;28;21089;-74
2023/06/20 14:36:09;;;;;;;0.50;0.50;;;;;;;;;;5035652;28;20057;-75
2023/06/20 14:38:40;;;;;;;0.57;0.57;;;;;;;;;;5029865;28;20049;-74
2023/06/20 14:41:06;;;;;;;0.77;0.50;;;;;;;;;;5044255;28;20501;-75
2023/06/20 14:43:33;;;;;;;0.47;0.47;;;;;;;;;;5045884;28;20132;-74
2023/06/20 14:45:59;;;;;;;0.40;0.40;;;;;;;;;;5028488;28;20597;-72
2023/06/20 14:48:26;;;;;;;0.88;0.68;;;;;;;;;;5033597;28;20147;-74
2023/06/20 14:50:53;;;;;;;0.30;0.30;;;;;;;;;;5038025;28;20049;-73
2023/06/20 14:53:20;;;;;;;0.60;0.43;;;;;;;;;;5035006;28;20060;-75
2023/06/20 14:55:49;;;;;;;0.30;0.30;;;;;;;;;;5007455;28;20053;-75
2023/06/20 14:58:16;;;;;;;0.60;0.50;;;;;;;;;;5029757;28;20120;-73
2023/06/20 15:00:42;;;;;;;0.30;0.30;;;;;;;;;;5028406;28;20626;-73
2023/06/20 15:03:09;;;;;;;0.52;0.50;;;;;;;;;;5034202;28;20057;-75
2023/06/20 15:05:36;;;;;;;0.40;0.40;;;;;;;;;;5030988;28;20053;-74
2023/06/20 15:08:03;;;;;;;0.40;0.40;;;;;;;;;;5028848;28;20061;-74
2023/06/20 15:10:29;;;;;;;0.40;0.40;;;;;;;;;;5031213;28;20052;-75
2023/06/20 15:12:56;;;;;;;0.30;0.30;;;;;;;;;;5038407;28;20104;-75
2023/06/20 15:15:22;;;;;;;0.40;0.40;;;;;;;;;;5035268;28;20088;-74
2023/06/20 15:17:49;;;;;;;0.80;0.73;;;;;;;;;;5024741;28;20153;-75
2023/06/20 15:20:15;;;;;;;0.28;0.28;;;;;;;;;;5023558;28;20061;-74
2023/06/20 15:22:45;;;;;;;0.43;0.40;;;;;;;;;;5027952;28;20056;-74
2023/06/20 15:25:14;;;;;;;0.30;0.30;;;;;;;;;;5005870;28;20060;-73
2023/06/20 15:27:40;;;;;;;0.30;0.30;;;;;;;;;;5023346;28;20108;-75